createdAt,value
2022-12-08T00:01:30.589Z,-3.80
2022-12-08T00:03:59.285Z,-3.80
2022-12-08T00:06:53.785Z,-4.00
2022-12-08T00:09:39.068Z,-4.00
2022-12-08T00:12:17.727Z,-4.00
2022-12-08T00:14:46.889Z,-4.10
2022-12-08T00:17:16.101Z,-4.20
2022-12-08T00:19:43.704Z,-4.20
2022-12-08T00:22:11.960Z,-4.20
2022-12-08T00:24:40.411Z,-4.20
2022-12-08T00:27:09.089Z,-4.10
2022-12-08T00:29:36.246Z,-4.00
2022-12-08T00:32:03.261Z,-4.00
2022-12-08T00:34:34.315Z,-4.00
2022-12-08T00:37:01.086Z,-4.00
2022-12-08T00:39:27.934Z,-4.00
2022-12-08T00:42:13.148Z,-4.20
2022-12-08T00:44:44.811Z,-4.40
2022-12-08T00:47:12.873Z,-4.50
2022-12-08T00:49:40.063Z,-4.40
2022-12-08T00:52:07.590Z,-4.40
2022-12-08T00:54:34.436Z,-4.30
2022-12-08T00:57:01.277Z,-4.30
2022-12-08T00:59:28.047Z,-4.30
2022-12-08T01:01:54.909Z,-4.30
2022-12-08T01:04:21.833Z,-4.30
2022-12-08T01:06:48.912Z,-4.40
2022-12-08T01:09:17.662Z,-4.50
2022-12-08T01:11:44.805Z,-4.50
2022-12-08T01:14:12.475Z,-4.50
2022-12-08T01:16:41.516Z,-4.50
2022-12-08T01:19:11.195Z,-4.60
2022-12-08T01:21:38.069Z,-4.70
2022-12-08T01:24:05.268Z,-4.70
2022-12-08T01:26:32.055Z,-4.70
2022-12-08T01:29:00.001Z,-4.60
2022-12-08T01:31:27.120Z,-4.40
2022-12-08T01:33:54.113Z,-4.30
2022-12-08T01:36:27.313Z,-4.10
2022-12-08T01:38:56.871Z,-4.10
2022-12-08T01:41:26.121Z,-4.20
2022-12-08T01:43:58.797Z,-4.10
2022-12-08T01:46:27.122Z,-4.00
2022-12-08T01:49:02.106Z,-4.00
2022-12-08T01:51:32.375Z,-4.00
2022-12-08T01:53:59.481Z,-3.90
2022-12-08T01:56:42.946Z,-3.90
2022-12-08T01:59:14.250Z,-3.80
2022-12-08T02:01:41.273Z,-3.70
2022-12-08T02:04:09.851Z,-3.50
2022-12-08T02:06:42.176Z,-3.50
2022-12-08T02:09:09.751Z,-3.50
2022-12-08T02:11:36.771Z,-3.60
2022-12-08T02:14:07.141Z,-3.50
2022-12-08T02:17:06.164Z,-3.30
2022-12-08T02:19:57.864Z,-3.30
2022-12-08T02:22:48.754Z,-3.30
2022-12-08T02:25:25.857Z,-3.30
2022-12-08T02:28:11.208Z,-3.40
2022-12-08T02:30:56.734Z,-3.40
2022-12-08T02:33:42.346Z,-3.40
2022-12-08T02:36:26.913Z,-3.30
2022-12-08T02:39:24.896Z,-3.30
2022-12-08T02:41:57.571Z,-3.20
2022-12-08T02:44:47.555Z,-3.30
2022-12-08T02:47:19.595Z,-3.30
2022-12-08T02:49:47.008Z,-3.40
2022-12-08T02:52:13.901Z,-3.40
2022-12-08T02:54:44.965Z,-3.40
2022-12-08T02:57:55.328Z,-3.50
2022-12-08T03:00:24.516Z,-3.60
2022-12-08T03:03:18.287Z,-3.60
2022-12-08T03:06:06.664Z,-3.60
2022-12-08T03:08:48.613Z,-3.50
2022-12-08T03:11:49.290Z,-3.50
2022-12-08T03:14:18.008Z,-3.60
2022-12-08T03:16:49.508Z,-3.50
2022-12-08T03:19:24.212Z,-3.50
2022-12-08T03:21:54.511Z,-3.40
2022-12-08T03:24:23.231Z,-3.30
2022-12-08T03:26:58.385Z,-3.40
2022-12-08T03:29:26.394Z,-3.40
2022-12-08T03:32:23.668Z,-3.40
2022-12-08T03:34:51.598Z,-3.50
2022-12-08T03:37:18.556Z,-3.50
2022-12-08T03:39:45.377Z,-3.60
2022-12-08T03:42:12.332Z,-3.70
2022-12-08T03:44:39.226Z,-3.70
2022-12-08T03:47:06.190Z,-3.70
2022-12-08T03:49:32.981Z,-3.70
2022-12-08T03:51:59.843Z,-3.70
2022-12-08T03:54:26.741Z,-3.70
2022-12-08T03:56:53.649Z,-3.80
2022-12-08T03:59:20.548Z,-3.80
2022-12-08T04:01:47.824Z,-3.40
2022-12-08T04:04:14.835Z,-3.90
2022-12-08T04:06:41.786Z,-4.00
2022-12-08T04:09:08.641Z,-3.80
2022-12-08T04:11:35.492Z,-3.80
2022-12-08T04:14:02.318Z,-3.80
2022-12-08T04:16:29.409Z,-3.70
2022-12-08T04:18:56.233Z,-3.80
2022-12-08T04:21:23.135Z,-3.80
2022-12-08T04:23:50.037Z,-3.70
2022-12-08T04:26:17.240Z,-3.80
2022-12-08T04:28:44.557Z,-4.00
2022-12-08T04:31:11.394Z,-4.10
2022-12-08T04:33:38.436Z,-4.20
2022-12-08T04:36:06.048Z,-4.30
2022-12-08T04:38:33.957Z,-4.30
2022-12-08T04:41:01.111Z,-4.50
2022-12-08T04:43:28.058Z,-4.50
2022-12-08T04:45:54.989Z,-4.40
2022-12-08T04:48:21.938Z,-4.40
2022-12-08T04:50:48.875Z,-4.60
2022-12-08T04:53:15.797Z,-4.30
2022-12-08T04:55:44.801Z,-4.40
2022-12-08T04:58:13.902Z,-4.40
2022-12-08T05:00:41.492Z,-4.60
2022-12-08T05:03:08.378Z,-4.50
2022-12-08T05:05:35.338Z,-4.60
2022-12-08T05:08:02.313Z,-4.60
2022-12-08T05:10:29.292Z,-4.40
2022-12-08T05:12:57.716Z,-4.40
2022-12-08T05:15:24.626Z,-4.60
2022-12-08T05:17:51.616Z,-4.80
2022-12-08T05:20:18.481Z,-5.00
2022-12-08T05:22:45.408Z,-5.10
2022-12-08T05:25:14.223Z,-5.10
2022-12-08T05:27:41.045Z,-5.20
2022-12-08T05:30:08.024Z,-5.30
2022-12-08T05:32:34.919Z,-5.20
2022-12-08T05:35:01.773Z,-5.20
2022-12-08T05:37:28.584Z,-5.10
2022-12-08T05:39:55.391Z,-5.00
2022-12-08T05:42:24.998Z,-5.00
2022-12-08T05:44:52.607Z,-5.20
2022-12-08T05:47:19.689Z,-5.30
2022-12-08T05:49:46.562Z,-5.50
2022-12-08T05:52:13.420Z,-5.50
2022-12-08T05:54:40.196Z,-5.40
2022-12-08T05:57:07.000Z,-5.30
2022-12-08T05:59:34.100Z,-5.30
2022-12-08T06:02:04.232Z,-5.30
2022-12-08T06:04:31.168Z,-5.20
2022-12-08T06:06:58.127Z,-5.30
2022-12-08T06:09:25.051Z,-5.40
2022-12-08T06:11:52.012Z,-5.40
2022-12-08T06:14:18.813Z,-5.00
2022-12-08T06:16:45.832Z,-5.10
2022-12-08T06:19:14.753Z,-5.20
2022-12-08T06:21:41.536Z,-5.20
2022-12-08T06:24:08.509Z,-5.10
2022-12-08T06:26:36.105Z,-4.90
2022-12-08T06:29:04.939Z,-4.90
2022-12-08T06:31:31.918Z,-4.80
2022-12-08T06:34:01.572Z,-4.80
2022-12-08T06:36:29.668Z,-4.80
2022-12-08T06:38:56.985Z,-4.90
2022-12-08T06:41:24.375Z,-4.80
2022-12-08T06:43:51.516Z,-4.70
2022-12-08T06:46:19.862Z,-4.40
2022-12-08T06:48:46.974Z,-3.90
2022-12-08T06:51:17.037Z,-4.10
2022-12-08T06:53:45.255Z,-4.40
2022-12-08T06:56:13.125Z,-4.50
2022-12-08T06:58:40.148Z,-4.60
2022-12-08T07:01:09.141Z,-4.80
2022-12-08T07:03:37.597Z,-4.80
2022-12-08T07:06:05.141Z,-4.90
2022-12-08T07:08:33.119Z,-4.90
2022-12-08T07:11:00.276Z,-4.90
2022-12-08T07:13:27.101Z,-5.00
2022-12-08T07:15:53.947Z,-5.10
2022-12-08T07:18:21.181Z,-5.10
2022-12-08T07:20:48.191Z,-5.20
2022-12-08T07:23:14.984Z,-5.30
2022-12-08T07:25:41.852Z,-5.30
2022-12-08T07:28:10.780Z,-5.20
2022-12-08T07:30:38.794Z,-5.10
2022-12-08T07:33:06.619Z,-5.10
2022-12-08T07:35:35.242Z,-4.70
2022-12-08T07:38:02.493Z,-4.50
2022-12-08T07:40:29.549Z,-4.50
2022-12-08T07:42:56.405Z,-4.40
2022-12-08T07:45:29.790Z,-4.20
2022-12-08T07:47:58.475Z,-4.10
2022-12-08T07:50:25.291Z,-3.70
2022-12-08T07:52:52.061Z,-3.10
2022-12-08T07:55:18.921Z,-2.40
2022-12-08T07:57:45.708Z,-1.60
2022-12-08T08:00:13.194Z,-1.60
2022-12-08T08:02:40.280Z,-1.40
2022-12-08T08:05:08.021Z,-1.80
2022-12-08T08:07:35.348Z,-1.60
2022-12-08T08:10:02.730Z,-1.80
2022-12-08T08:12:31.780Z,-2.10
2022-12-08T08:14:59.902Z,-2.30
2022-12-08T08:17:26.895Z,-2.50
2022-12-08T08:19:53.798Z,-2.70
2022-12-08T08:22:20.739Z,-2.80
2022-12-08T08:24:47.598Z,-2.70
2022-12-08T08:27:14.697Z,-2.70
2022-12-08T08:29:41.465Z,-2.60
2022-12-08T08:32:08.305Z,-2.60
2022-12-08T08:34:35.102Z,-2.40
2022-12-08T08:37:02.493Z,-2.30
2022-12-08T08:39:30.309Z,-2.30
2022-12-08T08:41:57.454Z,-2.20
2022-12-08T08:44:24.236Z,-2.20
2022-12-08T08:46:51.150Z,-2.10
2022-12-08T08:49:18.774Z,-2.10
2022-12-08T08:51:45.740Z,-2.10
2022-12-08T08:54:12.568Z,-1.90
2022-12-08T08:56:39.665Z,-1.80
2022-12-08T08:59:06.565Z,-1.70
2022-12-08T09:01:34.609Z,-1.50
2022-12-08T09:04:01.649Z,-1.50
2022-12-08T09:06:28.873Z,-1.50
2022-12-08T09:08:56.103Z,-1.50
2022-12-08T09:11:23.701Z,-1.40
2022-12-08T09:13:52.320Z,-1.20
2022-12-08T09:16:19.556Z,-1.00
2022-12-08T09:18:46.528Z,-1.00
2022-12-08T09:21:20.393Z,-0.90
2022-12-08T09:23:47.194Z,-0.80
2022-12-08T09:26:14.011Z,-0.80
2022-12-08T09:28:46.310Z,-0.70
2022-12-08T09:31:15.276Z,-0.70
2022-12-08T09:33:42.487Z,-0.70
2022-12-08T09:36:10.329Z,-0.70
2022-12-08T09:38:38.589Z,-0.60
2022-12-08T09:41:16.444Z,-0.70
2022-12-08T09:44:05.008Z,-0.80
2022-12-08T09:46:34.263Z,-0.80
2022-12-08T09:49:03.561Z,-0.80
2022-12-08T09:51:40.547Z,-0.60
2022-12-08T09:54:15.121Z,-0.30
2022-12-08T09:56:42.126Z,-0.20
2022-12-08T09:59:08.870Z,0.00
2022-12-08T10:01:41.750Z,0.00
2022-12-08T10:04:29.961Z,0.10
2022-12-08T10:07:21.001Z,0.00
2022-12-08T10:10:06.621Z,0.00
2022-12-08T10:12:51.916Z,0.10
2022-12-08T10:15:50.478Z,0.20
2022-12-08T10:18:19.850Z,0.40
2022-12-08T10:20:48.832Z,0.50
2022-12-08T10:23:21.386Z,0.60
2022-12-08T10:25:52.047Z,0.80
2022-12-08T10:28:18.949Z,0.70
2022-12-08T10:30:45.770Z,1.00
2022-12-08T10:33:21.684Z,0.80
2022-12-08T10:36:00.724Z,0.80
2022-12-08T10:38:32.327Z,0.90
2022-12-08T10:41:10.709Z,1.00
2022-12-08T10:43:56.344Z,1.00
2022-12-08T10:46:28.021Z,1.00
2022-12-08T10:49:13.062Z,1.30
2022-12-08T10:51:41.644Z,1.50
2022-12-08T10:54:33.621Z,1.80
2022-12-08T10:57:00.664Z,2.70
2022-12-08T10:59:27.567Z,2.90
2022-12-08T11:01:56.414Z,3.00
2022-12-08T11:04:36.322Z,2.80
2022-12-08T11:07:06.229Z,2.10
2022-12-08T11:09:50.792Z,2.20
2022-12-08T11:12:22.155Z,2.50
2022-12-08T11:15:01.076Z,2.80
2022-12-08T11:17:35.617Z,2.80
2022-12-08T11:20:06.532Z,2.90
2022-12-08T11:22:37.581Z,3.10
2022-12-08T11:25:26.269Z,3.40
2022-12-08T11:28:01.753Z,3.70
2022-12-08T11:30:34.691Z,3.70
2022-12-08T11:33:23.550Z,3.90
2022-12-08T11:35:56.746Z,3.50
2022-12-08T11:38:26.872Z,2.90
2022-12-08T11:41:10.956Z,2.60
2022-12-08T11:44:18.751Z,2.80
2022-12-08T11:46:59.805Z,2.50
2022-12-08T11:49:36.302Z,2.60
2022-12-08T11:52:15.635Z,2.10
2022-12-08T11:55:03.339Z,2.00
2022-12-08T11:57:30.460Z,2.30
2022-12-08T11:59:59.464Z,2.40
2022-12-08T12:02:32.123Z,2.10
2022-12-08T12:08:18.966Z,2.00
2022-12-08T12:10:51.755Z,1.60
2022-12-08T12:13:35.494Z,1.70
2022-12-08T12:16:11.554Z,1.60
2022-12-08T12:18:38.803Z,1.40
2022-12-08T12:21:30.815Z,1.10
2022-12-08T12:24:00.284Z,1.10
2022-12-08T12:26:50.157Z,0.90
2022-12-08T12:29:20.153Z,1.10
2022-12-08T12:32:01.093Z,1.10
2022-12-08T12:34:35.191Z,1.10
2022-12-08T12:37:07.977Z,1.20
2022-12-08T12:39:52.333Z,1.10
2022-12-08T12:42:41.983Z,1.20
2022-12-08T12:45:12.031Z,1.40
2022-12-08T12:47:54.072Z,1.40
2022-12-08T12:50:35.197Z,1.20
2022-12-08T12:53:17.937Z,1.10
2022-12-08T12:56:03.603Z,1.20
2022-12-08T12:58:30.449Z,1.20
2022-12-08T13:01:13.009Z,1.30
2022-12-08T13:04:02.283Z,1.10
2022-12-08T13:06:45.516Z,1.20
2022-12-08T13:09:23.309Z,1.10
2022-12-08T13:11:54.322Z,0.90
2022-12-08T13:14:27.457Z,0.80
2022-12-08T13:16:59.793Z,0.70
2022-12-08T13:19:31.078Z,0.60
2022-12-08T13:21:58.745Z,0.60
2022-12-08T13:24:25.549Z,0.60
2022-12-08T13:27:04.531Z,0.70
2022-12-08T13:29:36.428Z,0.80
2022-12-08T13:32:39.011Z,0.80
2022-12-08T13:35:16.157Z,0.70
2022-12-08T13:37:54.428Z,0.60
2022-12-08T13:40:25.417Z,0.50
2022-12-08T13:43:10.450Z,0.60
2022-12-08T13:46:31.833Z,0.60
2022-12-08T13:55:58.668Z,1.00
2022-12-08T13:57:35.293Z,0.80
2022-12-08T14:00:15.707Z,0.80
2022-12-08T14:02:48.206Z,0.80
2022-12-08T14:05:20.356Z,0.80
2022-12-08T14:07:54.169Z,0.80
2022-12-08T14:10:26.211Z,0.70
2022-12-08T14:13:11.124Z,0.60
2022-12-08T14:15:39.847Z,0.80
2022-12-08T14:18:21.312Z,0.80
2022-12-08T14:21:20.882Z,0.80
2022-12-08T14:23:48.722Z,0.80
2022-12-08T14:26:16.191Z,0.60
2022-12-08T14:28:45.262Z,0.30
2022-12-08T14:31:14.637Z,0.30
2022-12-08T14:33:42.137Z,0.30
2022-12-08T14:36:09.761Z,0.20
2022-12-08T14:38:36.729Z,0.20
2022-12-08T14:41:09.078Z,0.10
2022-12-08T14:43:36.253Z,0.10
2022-12-08T14:46:18.536Z,0.10
2022-12-08T14:48:45.464Z,0.20
2022-12-08T14:51:20.190Z,0.30
2022-12-08T14:54:09.684Z,0.20
2022-12-08T14:56:37.993Z,0.20
2022-12-08T14:59:17.966Z,0.00
2022-12-08T15:01:45.939Z,0.00
2022-12-08T15:04:12.852Z,-0.10
2022-12-08T15:07:00.616Z,-0.30
2022-12-08T15:09:39.766Z,-0.30
2022-12-08T15:12:14.026Z,-0.40
2022-12-08T15:14:44.078Z,-0.50
2022-12-08T15:17:41.135Z,-0.50
2022-12-08T15:20:33.175Z,-0.50
2022-12-08T15:23:02.564Z,-0.60
2022-12-08T15:25:29.470Z,-0.60
2022-12-08T15:27:57.897Z,-0.50
2022-12-08T15:30:28.610Z,-0.40
2022-12-08T15:32:56.573Z,-0.40
2022-12-08T15:35:23.597Z,-0.50
2022-12-08T15:37:50.479Z,-0.50
2022-12-08T15:40:21.310Z,-0.40
2022-12-08T15:42:48.911Z,-0.50
2022-12-08T15:45:17.552Z,-0.60
2022-12-08T15:47:45.528Z,-0.60
2022-12-08T15:50:19.142Z,-0.60
2022-12-08T15:52:46.662Z,-0.60
2022-12-08T15:55:15.822Z,-0.60
2022-12-08T16:00:53.146Z,-0.80
2022-12-08T16:04:09.379Z,-0.90
2022-12-08T16:09:29.058Z,-1.00
2022-12-08T16:13:13.536Z,-1.00
2022-12-08T16:18:15.028Z,-1.10
2022-12-08T16:21:07.440Z,-1.20
2022-12-08T16:23:45.763Z,-1.30
2022-12-08T16:27:00.962Z,-1.40
2022-12-08T16:29:07.509Z,-1.40
2022-12-08T16:31:34.608Z,-1.00
2022-12-08T16:34:01.540Z,-0.90
2022-12-08T16:36:28.479Z,-0.90
2022-12-08T16:38:55.316Z,-0.90
2022-12-08T16:41:41.239Z,-0.90
2022-12-08T16:44:08.104Z,-0.90
2022-12-08T16:46:36.086Z,-1.10
2022-12-08T16:49:03.580Z,-1.20
2022-12-08T16:51:30.448Z,-1.20
2022-12-08T16:53:58.408Z,-1.30
2022-12-08T16:56:32.295Z,-1.40
2022-12-08T16:59:01.133Z,-1.50
2022-12-08T17:01:28.235Z,-1.60
2022-12-08T17:06:41.960Z,-2.00
2022-12-08T17:09:08.805Z,-2.20
2022-12-08T17:11:40.965Z,-2.30
2022-12-08T17:14:10.919Z,-2.50
2022-12-08T17:16:38.292Z,-2.50
2022-12-08T17:19:05.472Z,-2.50
2022-12-08T17:21:32.736Z,-2.60
2022-12-08T17:23:59.524Z,-2.70
2022-12-08T17:26:26.455Z,-2.70
2022-12-08T17:29:01.542Z,-2.60
2022-12-08T17:31:30.677Z,-2.60
2022-12-08T17:34:03.203Z,-2.70
2022-12-08T17:36:30.148Z,-2.70
2022-12-08T17:39:00.375Z,-2.70
2022-12-08T17:41:27.447Z,-2.90
2022-12-08T17:43:54.567Z,-3.00
2022-12-08T17:46:22.589Z,-3.10
2022-12-08T17:48:50.363Z,-3.10
2022-12-08T17:51:17.272Z,-3.10
2022-12-08T17:53:44.372Z,-3.00
2022-12-08T17:56:17.352Z,-2.90
2022-12-08T17:58:45.686Z,-2.80
2022-12-08T18:01:14.498Z,-2.70
2022-12-08T18:03:41.336Z,-2.60
2022-12-08T18:06:10.524Z,-2.50
2022-12-08T18:08:37.785Z,-2.50
2022-12-08T18:11:05.875Z,-2.50
2022-12-08T18:13:32.684Z,-2.60
2022-12-08T18:15:59.572Z,-2.60
2022-12-08T18:18:26.370Z,-2.60
2022-12-08T18:20:53.428Z,-2.60
2022-12-08T18:23:20.282Z,-2.70
2022-12-08T18:25:47.453Z,-2.70
2022-12-08T18:28:14.360Z,-2.70
2022-12-08T18:30:41.569Z,-2.80
2022-12-08T18:33:08.449Z,-2.90
2022-12-08T18:35:35.318Z,-3.00
2022-12-08T18:38:02.134Z,-3.00
2022-12-08T18:40:29.534Z,-3.10
2022-12-08T18:42:56.657Z,-3.20
2022-12-08T18:45:23.589Z,-3.30
2022-12-08T18:47:51.355Z,-3.40
2022-12-08T18:50:18.643Z,-3.50
2022-12-08T18:52:46.131Z,-3.50
2022-12-08T18:55:13.610Z,-3.70
2022-12-08T18:57:43.102Z,-3.80
2022-12-08T19:00:13.682Z,-3.90
2022-12-08T19:02:41.385Z,-4.00
2022-12-08T19:05:09.629Z,-4.20
2022-12-08T19:07:36.598Z,-4.20
2022-12-08T19:10:05.422Z,-4.30
2022-12-08T19:12:32.696Z,-4.00
2022-12-08T19:14:59.522Z,-4.20
2022-12-08T19:17:26.386Z,-4.30
2022-12-08T19:19:53.180Z,-4.40
2022-12-08T19:22:20.037Z,-4.50
2022-12-08T19:24:46.861Z,-4.50
2022-12-08T19:27:13.787Z,-4.60
2022-12-08T19:29:40.595Z,-4.60
2022-12-08T19:32:07.589Z,-4.70
2022-12-08T19:34:34.445Z,-4.70
2022-12-08T19:37:01.254Z,-4.80
2022-12-08T19:39:46.662Z,-4.80
2022-12-08T19:42:34.749Z,-4.70
2022-12-08T19:45:11.868Z,-4.60
2022-12-08T19:47:39.852Z,-4.70
2022-12-08T19:50:35.285Z,-4.90
2022-12-08T19:53:04.923Z,-5.00
2022-12-08T19:55:31.964Z,-5.00
2022-12-08T19:57:59.825Z,-5.10
2022-12-08T20:00:26.696Z,-5.00
2022-12-08T20:02:53.629Z,-4.80
2022-12-08T20:05:20.481Z,-4.90
2022-12-08T20:07:47.702Z,-5.00
2022-12-08T20:10:22.139Z,-5.10
2022-12-08T20:12:49.230Z,-5.20
2022-12-08T20:15:16.150Z,-5.10
2022-12-08T20:17:43.592Z,-5.10
2022-12-08T20:20:12.965Z,-5.10
2022-12-08T20:22:40.120Z,-5.20
2022-12-08T20:25:07.771Z,-5.30
2022-12-08T20:27:34.692Z,-5.30
2022-12-08T20:30:01.571Z,-5.30
2022-12-08T20:32:28.496Z,-5.40
2022-12-08T20:34:55.409Z,-5.30
2022-12-08T20:37:22.619Z,-5.10
2022-12-08T20:39:49.530Z,-4.90
2022-12-08T20:42:16.379Z,-4.90
2022-12-08T20:44:44.498Z,-5.00
2022-12-08T20:47:12.929Z,-5.00
2022-12-08T20:49:40.001Z,-5.10
2022-12-08T20:52:07.692Z,-5.20
2022-12-08T20:54:35.441Z,-5.20
2022-12-08T20:57:02.395Z,-5.20
2022-12-08T20:59:29.564Z,-5.30
2022-12-08T21:01:56.740Z,-5.20
2022-12-08T21:04:24.031Z,-5.30
2022-12-08T21:06:51.237Z,-5.40
2022-12-08T21:09:18.763Z,-5.50
2022-12-08T21:11:45.831Z,-5.40
2022-12-08T21:14:13.005Z,-5.30
2022-12-08T21:16:40.326Z,-5.30
2022-12-08T21:19:07.345Z,-5.30
2022-12-08T21:21:34.275Z,-5.30
2022-12-08T21:24:02.196Z,-5.20
2022-12-08T21:26:29.444Z,-5.20
2022-12-08T21:28:58.951Z,-5.30
2022-12-08T21:31:27.030Z,-5.40
2022-12-08T21:33:55.265Z,-5.40
2022-12-08T21:36:22.658Z,-5.40
2022-12-08T21:38:50.311Z,-5.40
2022-12-08T21:41:41.344Z,-5.40
2022-12-08T21:44:11.287Z,-5.50
2022-12-08T21:46:39.057Z,-5.40
2022-12-08T21:49:07.082Z,-5.30
2022-12-08T21:51:37.819Z,-5.20
2022-12-08T21:54:05.157Z,-5.20
2022-12-08T21:56:32.400Z,-5.20
2022-12-08T21:58:59.332Z,-5.20
2022-12-08T22:01:26.292Z,-5.20
2022-12-08T22:03:53.446Z,-5.20
2022-12-08T22:06:20.709Z,-5.20
2022-12-08T22:08:47.787Z,-5.20
2022-12-08T22:11:14.869Z,-5.20
2022-12-08T22:13:42.114Z,-5.20
2022-12-08T22:16:12.226Z,-5.10
2022-12-08T22:18:39.667Z,-5.00
2022-12-08T22:21:16.758Z,-4.80
2022-12-08T22:23:44.861Z,-4.80
2022-12-08T22:26:13.211Z,-4.70
2022-12-08T22:28:42.958Z,-4.60
2022-12-08T22:31:20.984Z,-4.50
2022-12-08T22:33:49.940Z,-4.60
2022-12-08T22:36:22.441Z,-4.60
2022-12-08T22:38:50.944Z,-4.70
2022-12-08T22:41:18.829Z,-4.70
2022-12-08T22:43:46.814Z,-4.60
2022-12-08T22:46:17.789Z,-4.60
2022-12-08T22:48:45.195Z,-4.60
2022-12-08T22:51:12.508Z,-4.60
2022-12-08T22:53:40.306Z,-4.60
2022-12-08T22:56:09.894Z,-4.60
2022-12-08T22:58:37.887Z,-4.60
2022-12-08T23:01:05.276Z,-4.60
2022-12-08T23:03:33.325Z,-4.50
2022-12-08T23:06:00.640Z,-4.60
2022-12-08T23:08:27.807Z,-4.40
2022-12-08T23:10:54.808Z,-4.30
2022-12-08T23:13:22.009Z,-4.30
2022-12-08T23:15:50.012Z,-4.20
2022-12-08T23:18:21.263Z,-4.20
2022-12-08T23:20:48.311Z,-4.10
2022-12-08T23:23:16.859Z,-4.10
2022-12-08T23:25:44.075Z,-4.10
2022-12-08T23:28:11.249Z,-4.10
2022-12-08T23:30:41.435Z,-4.10
2022-12-08T23:33:08.535Z,-4.20
2022-12-08T23:35:35.558Z,-4.20
2022-12-08T23:38:02.565Z,-4.20
2022-12-08T23:40:29.452Z,-4.30
2022-12-08T23:42:56.578Z,-4.40
2022-12-08T23:45:23.527Z,-4.50
2022-12-08T23:47:50.348Z,-4.60
2022-12-08T23:50:17.642Z,-4.60
2022-12-08T23:52:44.799Z,-4.50
2022-12-08T23:55:11.894Z,-4.50
2022-12-08T23:57:39.148Z,-4.50
